createdAt,value
2019-02-15T00:00:27.480Z,46.50
2019-02-15T00:02:56.114Z,45.43
2019-02-15T00:05:24.676Z,45.60
2019-02-15T00:07:53.201Z,44.17
2019-02-15T00:10:21.757Z,45.43
2019-02-15T00:12:50.397Z,43.10
2019-02-15T00:15:19.070Z,43.57
2019-02-15T00:17:52.167Z,40.47
2019-02-15T00:20:31.342Z,47.60
2019-02-15T00:22:59.997Z,47.57
2019-02-15T00:25:28.627Z,50.67
2019-02-15T00:27:57.215Z,50.17
2019-02-15T00:30:28.967Z,51.43
2019-02-15T00:32:57.607Z,46.60
2019-02-15T00:35:26.254Z,49.93
2019-02-15T00:37:54.804Z,46.77
2019-02-15T00:40:23.308Z,46.50
2019-02-15T00:42:51.972Z,46.53
2019-02-15T00:45:22.170Z,41.83
2019-02-15T00:47:52.379Z,44.87
2019-02-15T00:50:22.675Z,47.23
2019-02-15T00:52:52.866Z,40.93
2019-02-15T00:55:25.792Z,42.03
2019-02-15T00:57:58.850Z,48.57
2019-02-15T01:00:31.660Z,48.13
2019-02-15T01:03:17.156Z,52.93
2019-02-15T01:05:47.353Z,51.90
2019-02-15T01:08:20.128Z,48.27
2019-02-15T01:10:50.428Z,48.50
2019-02-15T01:13:18.986Z,46.83
2019-02-15T01:15:47.609Z,52.67
2019-02-15T01:18:16.268Z,54.37
2019-02-15T01:20:44.837Z,50.13
2019-02-15T01:23:13.426Z,51.87
2019-02-15T01:25:43.691Z,52.47
2019-02-15T01:28:13.916Z,51.97
2019-02-15T01:30:46.807Z,50.07
2019-02-15T01:33:16.998Z,50.73
2019-02-15T01:35:56.113Z,48.60
2019-02-15T01:38:31.275Z,49.57
2019-02-15T01:41:13.048Z,50.13
2019-02-15T01:43:43.243Z,50.50
2019-02-15T01:46:15.821Z,48.67
2019-02-15T01:48:44.349Z,48.53
2019-02-15T01:51:12.988Z,47.57
2019-02-15T01:53:41.472Z,44.77
2019-02-15T01:56:10.025Z,46.73
2019-02-15T01:58:38.643Z,50.37
2019-02-15T02:01:07.331Z,51.63
2019-02-15T02:03:36.123Z,51.70
2019-02-15T02:06:04.971Z,51.60
2019-02-15T02:08:33.908Z,49.83
2019-02-15T02:11:02.561Z,48.43
2019-02-15T02:13:31.185Z,47.67
2019-02-15T02:15:59.786Z,49.10
2019-02-15T02:18:28.325Z,46.07
2019-02-15T02:20:56.896Z,50.53
2019-02-15T02:23:25.502Z,51.63
2019-02-15T02:25:54.093Z,50.00
2019-02-15T02:28:22.729Z,49.30
2019-02-15T02:30:51.288Z,48.20
2019-02-15T02:33:19.976Z,48.87
2019-02-15T02:35:48.710Z,48.33
2019-02-15T02:38:17.341Z,47.07
2019-02-15T02:40:45.935Z,48.53
2019-02-15T02:43:14.483Z,44.37
2019-02-15T02:45:42.965Z,48.50
2019-02-15T02:48:11.540Z,44.40
2019-02-15T02:50:40.099Z,45.13
2019-02-15T02:53:08.713Z,45.27
2019-02-15T02:55:37.307Z,48.30
2019-02-15T02:58:05.996Z,47.13
2019-02-15T03:00:34.636Z,49.60
2019-02-15T03:03:03.290Z,48.60
2019-02-15T03:05:31.925Z,50.43
2019-02-15T03:08:00.558Z,49.20
2019-02-15T03:10:29.197Z,47.27
2019-02-15T03:12:57.673Z,47.50
2019-02-15T03:15:26.286Z,47.70
2019-02-15T03:17:54.941Z,44.90
2019-02-15T03:20:30.936Z,47.43
2019-02-15T03:22:54.105Z,44.53
2019-02-15T03:25:22.703Z,47.10
2019-02-15T03:27:51.252Z,43.07
2019-02-15T03:30:19.796Z,45.27
2019-02-15T03:32:48.459Z,46.77
2019-02-15T03:35:17.016Z,39.97
2019-02-15T03:37:47.144Z,42.73
2019-02-15T03:40:20.432Z,43.17
2019-02-15T03:42:49.000Z,40.33
2019-02-15T03:45:18.318Z,37.00
2019-02-15T03:47:46.924Z,39.10
2019-02-15T03:50:15.538Z,47.50
2019-02-15T03:52:44.089Z,49.97
2019-02-15T03:55:12.749Z,47.50
2019-02-15T03:57:42.138Z,48.80
2019-02-15T04:00:12.659Z,46.03
2019-02-15T04:02:41.322Z,42.77
2019-02-15T04:05:09.959Z,44.50
2019-02-15T04:07:38.626Z,43.47
2019-02-15T04:10:09.379Z,44.70
2019-02-15T04:12:38.001Z,42.50
2019-02-15T04:15:07.911Z,41.13
2019-02-15T04:17:36.572Z,40.47
2019-02-15T04:20:07.923Z,39.73
2019-02-15T04:22:36.476Z,38.63
2019-02-15T04:25:05.929Z,40.53
2019-02-15T04:27:34.562Z,40.20
2019-02-15T04:30:03.189Z,40.43
2019-02-15T04:32:31.786Z,37.97
2019-02-15T04:35:00.320Z,37.13
2019-02-15T04:37:28.900Z,36.83
2019-02-15T04:39:57.481Z,38.20
2019-02-15T04:42:26.042Z,36.27
2019-02-15T04:44:54.531Z,34.07
2019-02-15T04:47:23.201Z,34.57
2019-02-15T04:49:51.772Z,38.17
2019-02-15T04:52:20.316Z,33.57
2019-02-15T04:54:48.923Z,35.07
2019-02-15T04:57:17.477Z,35.27
2019-02-15T04:59:46.031Z,33.73
2019-02-15T05:02:14.626Z,31.00
2019-02-15T05:04:43.104Z,31.30
2019-02-15T05:07:11.599Z,34.17
2019-02-15T05:09:40.110Z,35.23
2019-02-15T05:12:08.613Z,36.07
2019-02-15T05:14:37.087Z,38.83
2019-02-15T05:17:05.715Z,38.93
2019-02-15T05:19:34.193Z,38.83
2019-02-15T05:22:02.676Z,39.00
2019-02-15T05:24:31.209Z,39.77
2019-02-15T05:26:59.756Z,39.77
2019-02-15T05:29:28.308Z,40.10
2019-02-15T05:31:56.943Z,39.77
2019-02-15T05:34:25.422Z,39.77
2019-02-15T05:36:53.963Z,39.30
2019-02-15T05:39:22.555Z,38.77
2019-02-15T05:41:51.110Z,41.43
2019-02-15T05:44:19.776Z,38.77
2019-02-15T05:46:49.897Z,39.90
2019-02-15T05:49:18.516Z,41.93
2019-02-15T05:51:47.643Z,42.43
2019-02-15T05:54:16.787Z,45.50
2019-02-15T05:56:45.384Z,44.23
2019-02-15T05:59:13.977Z,42.53
2019-02-15T06:01:42.545Z,41.60
2019-02-15T06:04:11.073Z,43.30
2019-02-15T06:06:39.562Z,40.63
2019-02-15T06:09:08.169Z,40.47
2019-02-15T06:11:36.789Z,42.27
2019-02-15T06:14:05.274Z,41.03
2019-02-15T06:16:33.861Z,41.70
2019-02-15T06:19:02.494Z,41.67
2019-02-15T06:21:31.081Z,41.33
2019-02-15T06:23:59.693Z,42.20
2019-02-15T06:26:28.245Z,42.40
2019-02-15T06:28:56.805Z,41.17
2019-02-15T06:31:26.915Z,42.27
2019-02-15T06:33:57.109Z,40.43
2019-02-15T06:36:27.305Z,41.77
2019-02-15T06:38:57.467Z,42.20
2019-02-15T06:41:27.731Z,41.53
2019-02-15T06:43:57.847Z,39.97
2019-02-15T06:46:26.509Z,40.87
2019-02-15T06:48:55.072Z,41.40
2019-02-15T06:51:23.632Z,43.57
2019-02-15T06:53:52.151Z,40.53
2019-02-15T06:56:22.410Z,40.10
2019-02-15T06:58:58.059Z,42.07
2019-02-15T07:01:35.176Z,41.27
2019-02-15T07:04:05.343Z,41.60
2019-02-15T07:06:33.892Z,40.30
2019-02-15T07:09:02.451Z,40.53
2019-02-15T07:11:30.962Z,40.87
2019-02-15T07:14:01.199Z,40.33
2019-02-15T07:16:29.687Z,40.33
2019-02-15T07:18:59.860Z,39.83
2019-02-15T07:21:28.556Z,39.63
2019-02-15T07:23:57.262Z,41.60
2019-02-15T07:26:27.358Z,36.27
2019-02-15T07:28:57.602Z,39.00
2019-02-15T07:31:26.103Z,40.67
2019-02-15T07:33:54.631Z,40.33
2019-02-15T07:36:23.237Z,40.87
2019-02-15T07:38:51.860Z,39.23
2019-02-15T07:41:20.471Z,43.13
2019-02-15T07:43:49.018Z,41.10
2019-02-15T07:46:17.707Z,43.93
2019-02-15T07:48:46.290Z,40.70
2019-02-15T07:51:14.975Z,40.87
2019-02-15T07:53:43.540Z,38.13
2019-02-15T07:56:12.144Z,38.40
2019-02-15T07:58:40.700Z,39.07
2019-02-15T08:01:09.270Z,39.57
2019-02-15T08:03:37.918Z,44.07
2019-02-15T08:06:06.479Z,38.47
2019-02-15T08:08:34.957Z,39.10
2019-02-15T08:11:03.609Z,40.60
2019-02-15T08:13:32.298Z,38.47
2019-02-15T08:16:02.685Z,37.27
2019-02-15T08:18:31.032Z,36.23
2019-02-15T08:20:59.589Z,35.40
2019-02-15T08:23:28.153Z,36.30
2019-02-15T08:25:56.762Z,36.10
2019-02-15T08:28:25.327Z,38.57
2019-02-15T08:30:53.937Z,39.57
2019-02-15T08:33:22.617Z,39.73
2019-02-15T08:35:51.114Z,36.07
2019-02-15T08:38:19.749Z,40.33
2019-02-15T08:40:48.321Z,38.00
2019-02-15T08:43:16.805Z,36.27
2019-02-15T08:45:45.439Z,35.77
2019-02-15T08:48:14.032Z,39.87
2019-02-15T08:50:42.699Z,35.47
2019-02-15T08:53:11.187Z,43.43
2019-02-15T08:55:40.707Z,41.87
2019-02-15T08:58:11.278Z,41.97
2019-02-15T09:00:39.473Z,39.03
2019-02-15T09:03:08.094Z,35.70
2019-02-15T09:05:36.655Z,37.27
2019-02-15T09:08:06.101Z,37.37
2019-02-15T09:10:34.709Z,36.40
2019-02-15T09:13:03.278Z,37.13
2019-02-15T09:15:31.838Z,33.53
2019-02-15T09:18:00.506Z,35.23
2019-02-15T09:20:28.998Z,33.47
2019-02-15T09:22:57.623Z,34.80
2019-02-15T09:25:26.218Z,38.93
2019-02-15T09:28:14.517Z,31.93
2019-02-15T09:30:45.578Z,31.03
2019-02-15T09:33:17.110Z,36.73
2019-02-15T09:35:47.380Z,38.77
2019-02-15T09:38:17.700Z,35.57
2019-02-15T09:40:51.574Z,40.40
2019-02-15T09:43:21.713Z,40.03
2019-02-15T09:45:51.908Z,39.17
2019-02-15T09:48:20.622Z,37.20
2019-02-15T09:50:49.158Z,35.83
2019-02-15T09:53:17.660Z,32.83
2019-02-15T09:55:46.163Z,36.93
2019-02-15T09:58:16.484Z,37.93
2019-02-15T10:00:45.477Z,37.27
2019-02-15T10:03:14.034Z,37.20
2019-02-15T10:05:42.699Z,39.03
2019-02-15T10:08:11.373Z,36.37
2019-02-15T10:10:39.945Z,33.40
2019-02-15T10:13:08.608Z,30.27
2019-02-15T10:15:37.162Z,31.13
2019-02-15T10:18:05.796Z,30.97
2019-02-15T10:20:34.495Z,29.00
2019-02-15T10:23:05.595Z,29.10
2019-02-15T10:25:34.221Z,28.10
2019-02-15T10:28:07.447Z,26.80
2019-02-15T10:30:36.010Z,27.13
2019-02-15T10:33:04.731Z,27.37
2019-02-15T10:35:33.373Z,26.27
2019-02-15T10:38:01.865Z,24.97
2019-02-15T10:40:30.498Z,25.87
2019-02-15T10:42:59.125Z,25.20
2019-02-15T10:45:27.690Z,25.33
2019-02-15T10:47:56.315Z,26.00
2019-02-15T10:50:24.886Z,26.67
2019-02-15T10:52:53.595Z,26.00
2019-02-15T10:55:22.240Z,23.63
2019-02-15T10:57:50.907Z,27.03
2019-02-15T11:00:20.520Z,25.83
2019-02-15T11:02:52.263Z,27.73
2019-02-15T11:05:20.866Z,26.10
2019-02-15T11:07:49.368Z,28.50
2019-02-15T11:10:17.997Z,27.40
2019-02-15T11:12:46.617Z,26.63
2019-02-15T11:15:16.998Z,26.57
2019-02-15T11:17:45.612Z,28.07
2019-02-15T11:20:16.967Z,25.97
2019-02-15T11:22:45.608Z,26.43
2019-02-15T11:25:14.305Z,25.30
2019-02-15T11:27:42.960Z,29.97
2019-02-15T11:30:13.912Z,34.13
2019-02-15T11:32:42.548Z,28.83
2019-02-15T11:35:12.914Z,27.33
2019-02-15T11:37:41.538Z,22.67
2019-02-15T11:40:15.192Z,25.70
2019-02-15T11:42:43.866Z,21.13
2019-02-15T11:45:16.219Z,23.13
2019-02-15T11:47:44.705Z,22.43
2019-02-15T11:50:14.471Z,21.77
2019-02-15T11:52:43.100Z,21.13
2019-02-15T11:55:11.947Z,20.57
2019-02-15T11:57:40.884Z,21.30
2019-02-15T12:00:14.844Z,19.73
2019-02-15T12:02:43.597Z,17.80
2019-02-15T12:05:13.243Z,19.57
2019-02-15T12:07:41.923Z,19.83
2019-02-15T12:10:11.477Z,20.83
2019-02-15T12:12:40.152Z,19.00
2019-02-15T12:15:10.649Z,20.17
2019-02-15T12:17:39.288Z,19.27
2019-02-15T12:20:13.411Z,19.60
2019-02-15T12:22:42.047Z,24.17
2019-02-15T12:25:10.741Z,23.07
2019-02-15T12:27:39.403Z,20.93
2019-02-15T12:30:13.207Z,21.70
2019-02-15T12:32:41.851Z,21.83
2019-02-15T12:35:11.249Z,22.17
2019-02-15T12:37:39.815Z,23.90
2019-02-15T12:40:10.035Z,20.60
2019-02-15T12:42:38.699Z,23.53
2019-02-15T12:45:10.225Z,21.33
2019-02-15T12:47:39.048Z,20.63
2019-02-15T12:50:16.301Z,21.13
2019-02-15T12:52:44.931Z,19.37
2019-02-15T12:55:13.642Z,21.77
2019-02-15T12:57:42.235Z,23.00
2019-02-15T13:00:13.355Z,22.13
2019-02-15T13:02:41.927Z,20.30
2019-02-15T13:05:11.787Z,19.70
2019-02-15T13:07:40.514Z,20.47
2019-02-15T13:10:12.388Z,20.97
2019-02-15T13:12:41.130Z,21.93
2019-02-15T13:15:11.371Z,23.20
2019-02-15T13:17:40.000Z,20.57
2019-02-15T13:20:10.166Z,17.63
2019-02-15T13:22:38.781Z,17.70
2019-02-15T13:25:08.418Z,27.70
2019-02-15T13:27:37.084Z,25.37
2019-02-15T13:30:08.945Z,16.83
2019-02-15T13:32:37.536Z,15.00
2019-02-15T13:35:08.468Z,16.40
2019-02-15T13:37:37.100Z,16.57
2019-02-15T13:40:07.943Z,17.73
2019-02-15T13:42:36.597Z,16.17
2019-02-15T13:45:07.672Z,17.17
2019-02-15T13:47:36.308Z,16.60
2019-02-15T13:50:06.991Z,16.10
2019-02-15T13:52:35.924Z,14.63
2019-02-15T13:55:05.562Z,14.33
2019-02-15T13:57:34.169Z,14.17
2019-02-15T14:00:02.906Z,11.60
2019-02-15T14:02:31.537Z,11.30
2019-02-15T14:05:00.287Z,11.13
2019-02-15T14:07:29.037Z,12.70
2019-02-15T14:09:57.677Z,13.30
2019-02-15T14:12:26.331Z,12.30
2019-02-15T14:14:54.891Z,12.73
2019-02-15T14:17:23.453Z,13.33
2019-02-15T14:19:52.096Z,11.17
2019-02-15T14:22:20.874Z,18.27
2019-02-15T14:24:49.556Z,13.70
2019-02-15T14:27:18.225Z,11.73
2019-02-15T14:29:46.871Z,11.53
2019-02-15T14:32:15.537Z,11.63
2019-02-15T14:34:44.121Z,12.20
2019-02-15T14:37:12.685Z,13.73
2019-02-15T14:39:41.346Z,12.60
2019-02-15T14:42:10.061Z,14.33
2019-02-15T14:44:40.237Z,12.87
2019-02-15T14:47:08.766Z,11.87
2019-02-15T14:49:37.360Z,12.40
2019-02-15T14:52:06.004Z,12.80
2019-02-15T14:54:34.557Z,13.73
2019-02-15T14:57:03.147Z,13.23
2019-02-15T14:59:31.711Z,12.40
2019-02-15T15:02:00.486Z,10.83
2019-02-15T15:04:29.017Z,11.30
2019-02-15T15:06:57.520Z,10.30
2019-02-15T15:09:26.166Z,12.20
2019-02-15T15:11:54.750Z,14.17
2019-02-15T15:14:23.383Z,19.80
2019-02-15T15:16:51.951Z,15.57
2019-02-15T15:19:20.694Z,14.60
2019-02-15T15:21:49.273Z,13.63
2019-02-15T15:24:17.823Z,13.30
2019-02-15T15:26:46.482Z,12.33
2019-02-15T15:29:15.222Z,12.90
2019-02-15T15:31:43.796Z,13.07
2019-02-15T15:34:12.462Z,13.03
2019-02-15T15:36:41.101Z,12.87
2019-02-15T15:39:11.365Z,12.20
2019-02-15T15:41:40.029Z,12.60
2019-02-15T15:44:08.653Z,11.27
2019-02-15T15:46:37.291Z,11.63
2019-02-15T15:49:05.967Z,11.23
2019-02-15T15:51:34.611Z,10.90
2019-02-15T15:54:03.257Z,13.43
2019-02-15T15:56:31.781Z,11.60
2019-02-15T15:59:00.419Z,14.33
2019-02-15T16:01:28.996Z,13.93
2019-02-15T16:03:57.735Z,16.07
2019-02-15T16:06:26.325Z,18.37
2019-02-15T16:08:54.935Z,16.53
2019-02-15T16:11:23.609Z,19.47
2019-02-15T16:13:52.166Z,18.93
2019-02-15T16:16:20.988Z,18.67
2019-02-15T16:18:49.631Z,18.83
2019-02-15T16:21:18.207Z,19.80
2019-02-15T16:23:46.775Z,20.50
2019-02-15T16:26:15.481Z,20.07
2019-02-15T16:28:44.027Z,19.13
2019-02-15T16:31:12.588Z,19.83
2019-02-15T16:33:41.265Z,23.10
2019-02-15T16:36:09.829Z,20.03
2019-02-15T16:38:38.398Z,21.57
2019-02-15T16:41:06.994Z,20.13
2019-02-15T16:43:35.567Z,18.63
2019-02-15T16:46:04.130Z,16.83
2019-02-15T16:48:41.742Z,19.20
2019-02-15T16:51:03.141Z,40.63
2019-02-15T16:53:31.825Z,23.20
2019-02-15T16:56:00.419Z,18.43
2019-02-15T16:58:28.974Z,24.03
2019-02-15T17:00:57.615Z,20.17
2019-02-15T17:03:26.350Z,18.80
2019-02-15T17:05:54.901Z,19.90
2019-02-15T17:08:23.585Z,16.70
2019-02-15T17:10:52.278Z,40.67
2019-02-15T17:13:20.842Z,105.83
2019-02-15T17:15:49.379Z,136.87
2019-02-15T17:18:17.907Z,97.40
2019-02-15T17:20:46.481Z,61.17
2019-02-15T17:23:15.088Z,54.37
2019-02-15T17:25:45.722Z,68.23
2019-02-15T17:28:13.910Z,64.77
2019-02-15T17:30:42.405Z,205.23
2019-02-15T17:33:10.958Z,199.13
2019-02-15T17:35:39.584Z,257.00
2019-02-15T17:38:08.217Z,183.90
2019-02-15T17:40:36.826Z,186.00
2019-02-15T17:43:05.472Z,165.03
2019-02-15T17:45:34.129Z,147.03
2019-02-15T17:48:02.796Z,134.63
2019-02-15T17:50:31.517Z,122.70
2019-02-15T17:53:00.078Z,104.67
2019-02-15T17:55:28.815Z,110.03
2019-02-15T17:57:57.506Z,121.97
2019-02-15T18:00:27.725Z,121.00
2019-02-15T18:02:56.520Z,95.80
2019-02-15T18:05:25.220Z,92.23
2019-02-15T18:07:53.823Z,90.73
2019-02-15T18:10:22.492Z,96.37
2019-02-15T18:12:51.078Z,89.00
2019-02-15T18:15:19.697Z,77.67
2019-02-15T18:17:48.406Z,103.63
2019-02-15T18:20:17.023Z,120.97
2019-02-15T18:22:45.656Z,120.53
2019-02-15T18:25:14.334Z,196.53
2019-02-15T18:27:43.052Z,208.50
2019-02-15T18:30:14.734Z,166.23
2019-02-15T18:32:43.401Z,149.53
2019-02-15T18:35:13.490Z,153.23
2019-02-15T18:37:42.184Z,147.53
2019-02-15T18:40:14.979Z,157.07
2019-02-15T18:42:45.249Z,155.87
2019-02-15T18:45:16.822Z,160.40
2019-02-15T18:47:45.567Z,202.47
2019-02-15T18:50:14.319Z,180.50
2019-02-15T18:52:42.968Z,213.20
2019-02-15T18:55:14.160Z,195.63
2019-02-15T18:57:42.982Z,194.07
2019-02-15T19:00:16.283Z,150.83
2019-02-15T19:02:49.056Z,163.70
2019-02-15T19:05:19.339Z,174.67
2019-02-15T19:07:48.095Z,187.17
2019-02-15T19:10:19.053Z,151.80
2019-02-15T19:12:51.705Z,130.47
2019-02-15T19:15:20.313Z,159.83
2019-02-15T19:17:49.037Z,263.33
2019-02-15T19:20:19.161Z,282.90
2019-02-15T19:22:49.188Z,280.40
2019-02-15T19:25:19.856Z,290.17
2019-02-15T19:27:48.507Z,277.23
2019-02-15T19:30:23.263Z,303.97
2019-02-15T19:32:52.029Z,216.07
2019-02-15T19:35:20.666Z,258.57
2019-02-15T19:37:52.226Z,141.57
2019-02-15T19:40:21.229Z,214.57
2019-02-15T19:42:52.515Z,176.63
2019-02-15T19:45:21.238Z,199.47
2019-02-15T19:47:49.837Z,165.60
2019-02-15T19:50:18.946Z,155.83
2019-02-15T19:52:49.019Z,160.47
2019-02-15T19:55:17.833Z,226.10
2019-02-15T19:57:46.891Z,163.70
2019-02-15T20:00:17.892Z,185.10
2019-02-15T20:02:46.716Z,190.03
2019-02-15T20:05:15.365Z,153.27
2019-02-15T20:07:44.294Z,138.70
2019-02-15T20:10:19.520Z,261.27
2019-02-15T20:12:48.147Z,251.47
2019-02-15T20:15:16.859Z,268.40
2019-02-15T20:17:45.728Z,295.20
2019-02-15T20:20:16.610Z,285.60
2019-02-15T20:22:45.240Z,301.00
2019-02-15T20:25:14.522Z,326.30
2019-02-15T20:27:43.172Z,266.13
2019-02-15T20:30:14.709Z,271.37
2019-02-15T20:32:43.487Z,238.83
2019-02-15T20:35:13.603Z,277.87
2019-02-15T20:37:42.549Z,264.87
2019-02-15T20:40:12.994Z,206.87
2019-02-15T20:42:44.682Z,185.20
2019-02-15T20:45:16.210Z,173.50
2019-02-15T20:47:48.089Z,227.10
2019-02-15T20:50:19.078Z,234.07
2019-02-15T20:52:49.461Z,249.20
2019-02-15T20:55:20.369Z,206.30
2019-02-15T20:57:50.580Z,188.17
2019-02-15T21:00:31.453Z,217.50
2019-02-15T21:03:01.630Z,225.40
2019-02-15T21:05:30.311Z,171.70
2019-02-15T21:07:58.979Z,218.20
2019-02-15T21:10:29.051Z,193.53
2019-02-15T21:12:57.629Z,183.30
2019-02-15T21:15:26.342Z,136.50
2019-02-15T21:17:57.877Z,119.57
2019-02-15T21:20:26.506Z,195.53
2019-02-15T21:22:55.179Z,211.50
2019-02-15T21:25:25.321Z,188.33
2019-02-15T21:27:55.604Z,197.23
2019-02-15T21:30:24.362Z,214.80
2019-02-15T21:32:52.945Z,216.83
2019-02-15T21:35:23.053Z,266.23
2019-02-15T21:37:51.750Z,280.53
2019-02-15T21:40:20.301Z,286.80
2019-02-15T21:42:48.939Z,283.60
2019-02-15T21:45:19.249Z,268.93
2019-02-15T21:47:48.090Z,236.77
2019-02-15T21:50:17.753Z,280.60
2019-02-15T21:52:46.701Z,219.17
2019-02-15T21:55:16.941Z,263.67
2019-02-15T21:57:45.608Z,422.30
2019-02-15T22:00:17.186Z,261.70
2019-02-15T22:02:45.970Z,245.33
2019-02-15T22:05:16.934Z,238.67
2019-02-15T22:07:47.069Z,313.47
2019-02-15T22:10:20.984Z,246.40
2019-02-15T22:12:49.552Z,346.40
2019-02-15T22:15:18.668Z,296.67
2019-02-15T22:17:47.311Z,279.73
2019-02-15T22:20:25.976Z,231.87
2019-02-15T22:22:47.250Z,212.20
2019-02-15T22:25:16.009Z,195.30
2019-02-15T22:27:44.623Z,174.10
2019-02-15T22:30:20.448Z,160.80
2019-02-15T22:32:49.086Z,161.00
2019-02-15T22:35:17.579Z,137.53
2019-02-15T22:37:46.199Z,153.67
2019-02-15T22:40:26.403Z,119.53
2019-02-15T22:42:54.925Z,140.57
2019-02-15T22:45:23.560Z,115.77
2019-02-15T22:47:52.186Z,161.13
2019-02-15T22:50:20.873Z,121.00
2019-02-15T22:52:49.473Z,153.30
2019-02-15T22:55:18.115Z,135.90
2019-02-15T22:57:48.417Z,124.77
2019-02-15T23:00:48.176Z,186.83
2019-02-15T23:03:18.695Z,216.30
2019-02-15T23:05:47.329Z,257.67
2019-02-15T23:08:15.960Z,264.07
2019-02-15T23:10:44.558Z,243.03
2019-02-15T23:13:13.154Z,220.93
2019-02-15T23:15:41.865Z,201.97
2019-02-15T23:18:10.534Z,172.33
2019-02-15T23:20:45.104Z,150.97
2019-02-15T23:23:09.578Z,181.63
2019-02-15T23:25:38.278Z,161.43
2019-02-15T23:28:06.975Z,145.47
2019-02-15T23:30:35.549Z,173.73
2019-02-15T23:33:04.162Z,167.27
2019-02-15T23:35:32.750Z,201.53
2019-02-15T23:38:02.893Z,167.63
2019-02-15T23:40:31.652Z,166.83
2019-02-15T23:43:00.265Z,166.83
2019-02-15T23:45:28.900Z,148.53
2019-02-15T23:47:57.508Z,142.93
2019-02-15T23:50:26.138Z,138.97
2019-02-15T23:52:54.773Z,129.73
2019-02-15T23:55:23.312Z,123.97
2019-02-15T23:57:51.956Z,109.83
